sensor_id;sensor_type;location;lat;lon;timestamp;pressure;altitude;pressure_sealevel;temperature;humidity
31911;BME280;18457;52.432;16.914;2023-04-01T00:01:09;98559.29;;;10.20;100.00
31911;BME280;18457;52.432;16.914;2023-04-01T00:03:41;98562.92;;;10.13;100.00
31911;BME280;18457;52.432;16.914;2023-04-01T00:06:16;98562.86;;;10.17;100.00
31911;BME280;18457;52.432;16.914;2023-04-01T00:08:48;98561.00;;;10.15;100.00
31911;BME280;18457;52.432;16.914;2023-04-01T00:11:20;98566.59;;;10.15;100.00
31911;BME280;18457;52.432;16.914;2023-04-01T00:13:52;98562.46;;;10.18;100.00
31911;BME280;18457;52.432;16.914;2023-04-01T00:16:25;98562.70;;;10.13;100.00
31911;BME280;18457;52.432;16.914;2023-04-01T00:18:57;98555.71;;;10.09;100.00
31911;BME280;18457;52.432;16.914;2023-04-01T00:21:31;98555.52;;;10.09;100.00
31911;BME280;18457;52.432;16.914;2023-04-01T00:24:03;98551.13;;;10.14;100.00
31911;BME280;18457;52.432;16.914;2023-04-01T00:26:35;98549.73;;;10.13;100.00
31911;BME280;18457;52.432;16.914;2023-04-01T00:29:07;98553.23;;;10.08;100.00
31911;BME280;18457;52.432;16.914;2023-04-01T00:31:39;98553.36;;;10.05;100.00
31911;BME280;18457;52.432;16.914;2023-04-01T00:34:11;98551.95;;;10.04;100.00
31911;BME280;18457;52.432;16.914;2023-04-01T00:36:43;98549.75;;;10.05;100.00
31911;BME280;18457;52.432;16.914;2023-04-01T00:39:15;98550.94;;;10.03;100.00
31911;BME280;18457;52.432;16.914;2023-04-01T00:41:47;98546.98;;;10.10;100.00
31911;BME280;18457;52.432;16.914;2023-04-01T00:44:22;98547.59;;;10.05;100.00
31911;BME280;18457;52.432;16.914;2023-04-01T00:46:54;98554.95;;;10.10;100.00
31911;BME280;18457;52.432;16.914;2023-04-01T00:49:29;98548.17;;;10.08;100.00
31911;BME280;18457;52.432;16.914;2023-04-01T00:52:05;98545.82;;;10.01;100.00
31911;BME280;18457;52.432;16.914;2023-04-01T00:54:39;98547.23;;;10.01;100.00
31911;BME280;18457;52.432;16.914;2023-04-01T00:57:15;98538.73;;;10.02;100.00
31911;BME280;18457;52.432;16.914;2023-04-01T00:59:52;98543.08;;;10.09;100.00
31911;BME280;18457;52.432;16.914;2023-04-01T01:02:26;98534.29;;;10.08;100.00
31911;BME280;18457;52.432;16.914;2023-04-01T01:04:59;98539.70;;;10.08;100.00
31911;BME280;18457;52.432;16.914;2023-04-01T01:07:39;98539.81;;;10.13;100.00
31911;BME280;18457;52.432;16.914;2023-04-01T01:10:19;98531.11;;;10.24;100.00
31911;BME280;18457;52.432;16.914;2023-04-01T01:13:03;98531.30;;;10.27;100.00
31911;BME280;18457;52.432;16.914;2023-04-01T01:15:44;98526.27;;;10.20;100.00
31911;BME280;18457;52.432;16.914;2023-04-01T01:18:22;98523.45;;;10.12;100.00
31911;BME280;18457;52.432;16.914;2023-04-01T01:21:31;98530.55;;;10.18;100.00
31911;BME280;18457;52.432;16.914;2023-04-01T01:24:30;98530.23;;;10.27;100.00
31911;BME280;18457;52.432;16.914;2023-04-01T01:27:10;98529.41;;;10.25;100.00
31911;BME280;18457;52.432;16.914;2023-04-01T01:35:48;98527.14;;;10.10;100.00
31911;BME280;18457;52.432;16.914;2023-04-01T01:38:24;98529.02;;;10.08;100.00
31911;BME280;18457;52.432;16.914;2023-04-01T01:41:07;98529.52;;;10.09;100.00
31911;BME280;18457;52.432;16.914;2023-04-01T01:43:43;98529.09;;;10.14;100.00
31911;BME280;18457;52.432;16.914;2023-04-01T01:46:21;98531.29;;;10.13;100.00
31911;BME280;18457;52.432;16.914;2023-04-01T01:48:55;98530.52;;;10.15;100.00
31911;BME280;18457;52.432;16.914;2023-04-01T01:51:29;98536.48;;;10.15;100.00
31911;BME280;18457;52.432;16.914;2023-04-01T01:54:03;98533.31;;;10.20;100.00
31911;BME280;18457;52.432;16.914;2023-04-01T01:56:36;98531.49;;;10.17;100.00
31911;BME280;18457;52.432;16.914;2023-04-01T01:59:10;98531.05;;;10.22;100.00
31911;BME280;18457;52.432;16.914;2023-04-01T02:01:44;98529.40;;;10.19;100.00
31911;BME280;18457;52.432;16.914;2023-04-01T02:04:19;98528.21;;;10.14;100.00
31911;BME280;18457;52.432;16.914;2023-04-01T02:06:58;98527.67;;;10.17;100.00
31911;BME280;18457;52.432;16.914;2023-04-01T02:09:32;98530.29;;;10.19;100.00
31911;BME280;18457;52.432;16.914;2023-04-01T02:12:07;98527.45;;;10.18;100.00
31911;BME280;18457;52.432;16.914;2023-04-01T02:14:45;98524.34;;;10.19;100.00
31911;BME280;18457;52.432;16.914;2023-04-01T02:17:20;98529.36;;;10.16;100.00
31911;BME280;18457;52.432;16.914;2023-04-01T02:19:57;98524.83;;;10.16;100.00
31911;BME280;18457;52.432;16.914;2023-04-01T02:22:33;98521.83;;;10.19;100.00
31911;BME280;18457;52.432;16.914;2023-04-01T02:25:09;98523.56;;;10.20;100.00
31911;BME280;18457;52.432;16.914;2023-04-01T02:27:44;98523.99;;;10.15;100.00
31911;BME280;18457;52.432;16.914;2023-04-01T02:30:19;98522.47;;;10.20;100.00
31911;BME280;18457;52.432;16.914;2023-04-01T02:32:51;98514.36;;;10.17;100.00
31911;BME280;18457;52.432;16.914;2023-04-01T02:35:24;98520.23;;;10.29;100.00
31911;BME280;18457;52.432;16.914;2023-04-01T02:37:57;98526.15;;;10.26;100.00
31911;BME280;18457;52.432;16.914;2023-04-01T02:40:29;98522.98;;;10.28;100.00
31911;BME280;18457;52.432;16.914;2023-04-01T02:43:01;98519.59;;;10.27;100.00
31911;BME280;18457;52.432;16.914;2023-04-01T02:45:33;98520.65;;;10.27;100.00
31911;BME280;18457;52.432;16.914;2023-04-01T02:48:06;98523.95;;;10.29;100.00
31911;BME280;18457;52.432;16.914;2023-04-01T02:50:39;98525.33;;;10.28;100.00
31911;BME280;18457;52.432;16.914;2023-04-01T02:53:11;98529.42;;;10.22;100.00
31911;BME280;18457;52.432;16.914;2023-04-01T02:55:43;98530.70;;;10.25;100.00
31911;BME280;18457;52.432;16.914;2023-04-01T02:58:18;98535.05;;;10.28;100.00
31911;BME280;18457;52.432;16.914;2023-04-01T03:00:50;98533.95;;;10.25;100.00
31911;BME280;18457;52.432;16.914;2023-04-01T03:03:22;98535.04;;;10.28;100.00
31911;BME280;18457;52.432;16.914;2023-04-01T03:05:54;98536.74;;;10.20;100.00
31911;BME280;18457;52.432;16.914;2023-04-01T03:08:29;98540.34;;;10.20;100.00
31911;BME280;18457;52.432;16.914;2023-04-01T03:11:01;98541.41;;;10.17;100.00
31911;BME280;18457;52.432;16.914;2023-04-01T03:13:35;98541.39;;;10.21;100.00
31911;BME280;18457;52.432;16.914;2023-04-01T03:16:07;98540.67;;;10.21;100.00
31911;BME280;18457;52.432;16.914;2023-04-01T03:18:39;98547.14;;;10.14;100.00
31911;BME280;18457;52.432;16.914;2023-04-01T03:21:16;98542.99;;;10.10;100.00
31911;BME280;18457;52.432;16.914;2023-04-01T03:23:48;98541.72;;;10.11;100.00
31911;BME280;18457;52.432;16.914;2023-04-01T03:26:20;98541.27;;;10.13;100.00
31911;BME280;18457;52.432;16.914;2023-04-01T03:28:53;98541.70;;;10.15;100.00
31911;BME280;18457;52.432;16.914;2023-04-01T03:31:25;98541.69;;;10.15;100.00
31911;BME280;18457;52.432;16.914;2023-04-01T03:33:58;98542.62;;;10.11;100.00
31911;BME280;18457;52.432;16.914;2023-04-01T03:36:30;98541.03;;;10.17;100.00
31911;BME280;18457;52.432;16.914;2023-04-01T03:39:02;98541.84;;;10.19;100.00
31911;BME280;18457;52.432;16.914;2023-04-01T03:41:38;98542.71;;;10.23;100.00
31911;BME280;18457;52.432;16.914;2023-04-01T03:44:11;98543.67;;;10.22;100.00
31911;BME280;18457;52.432;16.914;2023-04-01T03:46:43;98544.16;;;10.26;100.00
31911;BME280;18457;52.432;16.914;2023-04-01T03:49:14;98543.55;;;10.21;100.00
31911;BME280;18457;52.432;16.914;2023-04-01T03:51:46;98545.87;;;10.14;100.00
31911;BME280;18457;52.432;16.914;2023-04-01T03:54:19;98549.41;;;10.12;100.00
31911;BME280;18457;52.432;16.914;2023-04-01T03:56:51;98549.58;;;10.05;100.00
31911;BME280;18457;52.432;16.914;2023-04-01T03:59:23;98551.50;;;10.07;100.00
31911;BME280;18457;52.432;16.914;2023-04-01T04:01:55;98555.27;;;10.07;100.00
31911;BME280;18457;52.432;16.914;2023-04-01T04:04:28;98555.19;;;10.09;100.00
31911;BME280;18457;52.432;16.914;2023-04-01T04:07:00;98558.25;;;10.12;100.00
31911;BME280;18457;52.432;16.914;2023-04-01T04:09:49;98561.27;;;10.09;100.00
31911;BME280;18457;52.432;16.914;2023-04-01T04:12:21;98558.55;;;10.06;100.00
31911;BME280;18457;52.432;16.914;2023-04-01T04:14:53;98564.58;;;10.05;100.00
31911;BME280;18457;52.432;16.914;2023-04-01T04:17:25;98567.86;;;10.08;100.00
31911;BME280;18457;52.432;16.914;2023-04-01T04:19:57;98574.04;;;10.10;100.00
31911;BME280;18457;52.432;16.914;2023-04-01T04:22:30;98573.95;;;10.08;100.00
31911;BME280;18457;52.432;16.914;2023-04-01T04:25:02;98576.60;;;10.10;100.00
31911;BME280;18457;52.432;16.914;2023-04-01T04:27:35;98577.62;;;10.07;100.00
31911;BME280;18457;52.432;16.914;2023-04-01T04:30:11;98576.77;;;10.10;100.00
31911;BME280;18457;52.432;16.914;2023-04-01T04:32:43;98581.88;;;10.12;100.00
31911;BME280;18457;52.432;16.914;2023-04-01T04:35:17;98581.61;;;10.10;100.00
31911;BME280;18457;52.432;16.914;2023-04-01T04:37:49;98584.05;;;10.12;100.00
31911;BME280;18457;52.432;16.914;2023-04-01T04:40:21;98586.75;;;10.19;100.00
31911;BME280;18457;52.432;16.914;2023-04-01T04:42:53;98587.80;;;10.13;100.00
31911;BME280;18457;52.432;16.914;2023-04-01T04:45:25;98585.63;;;10.09;100.00
31911;BME280;18457;52.432;16.914;2023-04-01T04:47:59;98586.98;;;10.11;100.00
31911;BME280;18457;52.432;16.914;2023-04-01T04:50:32;98588.89;;;10.05;100.00
31911;BME280;18457;52.432;16.914;2023-04-01T04:53:04;98587.92;;;10.10;100.00
31911;BME280;18457;52.432;16.914;2023-04-01T04:55:37;98592.11;;;10.06;100.00
31911;BME280;18457;52.432;16.914;2023-04-01T04:58:22;98590.15;;;10.05;100.00
31911;BME280;18457;52.432;16.914;2023-04-01T05:00:54;98596.50;;;10.08;100.00
31911;BME280;18457;52.432;16.914;2023-04-01T05:03:31;98600.71;;;10.03;100.00
31911;BME280;18457;52.432;16.914;2023-04-01T05:06:03;98598.73;;;10.04;100.00
31911;BME280;18457;52.432;16.914;2023-04-01T05:08:36;98598.30;;;10.05;100.00
31911;BME280;18457;52.432;16.914;2023-04-01T05:11:12;98599.17;;;10.09;100.00
31911;BME280;18457;52.432;16.914;2023-04-01T05:13:45;98602.59;;;10.02;100.00
31911;BME280;18457;52.432;16.914;2023-04-01T05:16:19;98603.98;;;10.03;100.00
31911;BME280;18457;52.432;16.914;2023-04-01T05:18:52;98604.69;;;10.00;100.00
31911;BME280;18457;52.432;16.914;2023-04-01T05:21:25;98611.54;;;10.08;100.00
31911;BME280;18457;52.432;16.914;2023-04-01T05:23:57;98607.30;;;10.09;100.00
31911;BME280;18457;52.432;16.914;2023-04-01T05:26:30;98613.42;;;10.09;100.00
31911;BME280;18457;52.432;16.914;2023-04-01T05:29:04;98614.41;;;10.04;100.00
31911;BME280;18457;52.432;16.914;2023-04-01T05:31:37;98617.32;;;10.11;100.00
31911;BME280;18457;52.432;16.914;2023-04-01T05:34:09;98617.33;;;10.11;100.00
31911;BME280;18457;52.432;16.914;2023-04-01T05:36:41;98618.86;;;10.13;100.00
31911;BME280;18457;52.432;16.914;2023-04-01T05:39:13;98624.36;;;10.10;100.00
31911;BME280;18457;52.432;16.914;2023-04-01T05:41:46;98620.72;;;10.12;100.00
31911;BME280;18457;52.432;16.914;2023-04-01T05:44:19;98623.20;;;10.08;100.00
31911;BME280;18457;52.432;16.914;2023-04-01T05:47:06;98624.59;;;10.02;100.00
31911;BME280;18457;52.432;16.914;2023-04-01T05:49:37;98626.04;;;10.02;100.00
31911;BME280;18457;52.432;16.914;2023-04-01T05:52:10;98628.54;;;10.06;100.00
31911;BME280;18457;52.432;16.914;2023-04-01T05:54:42;98627.48;;;10.02;100.00
31911;BME280;18457;52.432;16.914;2023-04-01T05:57:14;98631.51;;;9.94;100.00
31911;BME280;18457;52.432;16.914;2023-04-01T05:59:46;98631.34;;;9.90;100.00
31911;BME280;18457;52.432;16.914;2023-04-01T06:02:19;98632.77;;;9.94;100.00
31911;BME280;18457;52.432;16.914;2023-04-01T06:05:00;98632.43;;;9.93;100.00
31911;BME280;18457;52.432;16.914;2023-04-01T06:07:34;98635.39;;;9.96;100.00
31911;BME280;18457;52.432;16.914;2023-04-01T06:10:13;98636.77;;;10.04;100.00
31911;BME280;18457;52.432;16.914;2023-04-01T06:12:56;98637.77;;;10.02;100.00
31911;BME280;18457;52.432;16.914;2023-04-01T06:15:38;98646.36;;;10.00;100.00
31911;BME280;18457;52.432;16.914;2023-04-01T06:18:44;98646.39;;;9.99;100.00
31911;BME280;18457;52.432;16.914;2023-04-01T06:21:42;98650.89;;;10.03;100.00
31911;BME280;18457;52.432;16.914;2023-04-01T06:24:39;98650.44;;;10.13;100.00
31911;BME280;18457;52.432;16.914;2023-04-01T06:27:19;98653.65;;;10.17;100.00
31911;BME280;18457;52.432;16.914;2023-04-01T06:30:03;98658.91;;;10.12;100.00
31911;BME280;18457;52.432;16.914;2023-04-01T06:32:53;98655.49;;;10.05;100.00
31911;BME280;18457;52.432;16.914;2023-04-01T06:35:48;98657.16;;;10.11;100.00
31911;BME280;18457;52.432;16.914;2023-04-01T06:38:41;98658.92;;;10.08;100.00
31911;BME280;18457;52.432;16.914;2023-04-01T06:44:23;98661.32;;;10.15;100.00
31911;BME280;18457;52.432;16.914;2023-04-01T06:47:28;98663.73;;;10.13;100.00
31911;BME280;18457;52.432;16.914;2023-04-01T06:50:28;98660.58;;;10.12;100.00
31911;BME280;18457;52.432;16.914;2023-04-01T06:53:19;98664.58;;;10.18;100.00
31911;BME280;18457;52.432;16.914;2023-04-01T06:56:19;98671.08;;;10.25;100.00
31911;BME280;18457;52.432;16.914;2023-04-01T06:59:01;98675.17;;;10.30;100.00
31911;BME280;18457;52.432;16.914;2023-04-01T07:01:37;98675.71;;;10.19;100.00
31911;BME280;18457;52.432;16.914;2023-04-01T07:04:14;98675.33;;;10.20;100.00
31911;BME280;18457;52.432;16.914;2023-04-01T07:06:53;98679.29;;;10.27;100.00
31911;BME280;18457;52.432;16.914;2023-04-01T07:09:28;98681.51;;;10.29;100.00
31911;BME280;18457;52.432;16.914;2023-04-01T07:12:26;98685.77;;;10.20;100.00
31911;BME280;18457;52.432;16.914;2023-04-01T07:15:24;98681.59;;;10.20;100.00
31911;BME280;18457;52.432;16.914;2023-04-01T07:17:58;98684.94;;;10.22;100.00
31911;BME280;18457;52.432;16.914;2023-04-01T07:20:37;98690.93;;;10.25;100.00
31911;BME280;18457;52.432;16.914;2023-04-01T07:23:16;98696.08;;;10.16;100.00
31911;BME280;18457;52.432;16.914;2023-04-01T07:26:20;98698.60;;;10.16;100.00
31911;BME280;18457;52.432;16.914;2023-04-01T07:29:13;98701.48;;;10.17;100.00
31911;BME280;18457;52.432;16.914;2023-04-01T07:32:23;98703.17;;;10.19;100.00
31911;BME280;18457;52.432;16.914;2023-04-01T07:35:09;98705.37;;;10.21;100.00
31911;BME280;18457;52.432;16.914;2023-04-01T07:37:52;98702.92;;;10.23;100.00
31911;BME280;18457;52.432;16.914;2023-04-01T07:40:32;98707.37;;;10.28;100.00
31911;BME280;18457;52.432;16.914;2023-04-01T07:43:19;98706.84;;;10.32;100.00
31911;BME280;18457;52.432;16.914;2023-04-01T07:46:13;98708.86;;;10.34;100.00
31911;BME280;18457;52.432;16.914;2023-04-01T07:48:55;98715.06;;;10.40;100.00
31911;BME280;18457;52.432;16.914;2023-04-01T07:51:35;98718.55;;;10.50;100.00
31911;BME280;18457;52.432;16.914;2023-04-01T07:54:11;98723.72;;;10.61;100.00
31911;BME280;18457;52.432;16.914;2023-04-01T07:56:48;98727.29;;;10.73;100.00
31911;BME280;18457;52.432;16.914;2023-04-01T07:59:35;98731.58;;;10.77;100.00
31911;BME280;18457;52.432;16.914;2023-04-01T08:05:45;98739.36;;;10.94;100.00
31911;BME280;18457;52.432;16.914;2023-04-01T08:08:27;98741.09;;;10.99;100.00
31911;BME280;18457;52.432;16.914;2023-04-01T08:11:39;98747.11;;;11.08;100.00
31911;BME280;18457;52.432;16.914;2023-04-01T08:14:39;98752.11;;;10.99;100.00
31911;BME280;18457;52.432;16.914;2023-04-01T08:17:46;98752.95;;;10.97;100.00
31911;BME280;18457;52.432;16.914;2023-04-01T08:20:28;98759.27;;;10.93;100.00
31911;BME280;18457;52.432;16.914;2023-04-01T08:23:10;98765.28;;;10.85;100.00
31911;BME280;18457;52.432;16.914;2023-04-01T08:25:49;98765.95;;;10.79;100.00
31911;BME280;18457;52.432;16.914;2023-04-01T08:28:26;98772.86;;;10.86;100.00
31911;BME280;18457;52.432;16.914;2023-04-01T08:31:06;98768.84;;;10.93;100.00
31911;BME280;18457;52.432;16.914;2023-04-01T08:33:43;98771.87;;;10.87;100.00
31911;BME280;18457;52.432;16.914;2023-04-01T08:36:20;98773.05;;;10.85;100.00
31911;BME280;18457;52.432;16.914;2023-04-01T08:39:05;98774.56;;;10.87;100.00
31911;BME280;18457;52.432;16.914;2023-04-01T08:41:59;98774.40;;;10.87;100.00
31911;BME280;18457;52.432;16.914;2023-04-01T08:45:17;98782.15;;;10.98;100.00
31911;BME280;18457;52.432;16.914;2023-04-01T08:48:22;98783.29;;;10.93;100.00
31911;BME280;18457;52.432;16.914;2023-04-01T08:51:18;98783.50;;;10.93;100.00
31911;BME280;18457;52.432;16.914;2023-04-01T08:54:14;98792.50;;;10.90;100.00
31911;BME280;18457;52.432;16.914;2023-04-01T08:56:59;98797.45;;;10.85;100.00
31911;BME280;18457;52.432;16.914;2023-04-01T08:59:45;98799.86;;;10.84;100.00
31911;BME280;18457;52.432;16.914;2023-04-01T09:03:00;98801.60;;;10.78;100.00
31911;BME280;18457;52.432;16.914;2023-04-01T09:08:51;98803.45;;;10.92;100.00
31911;BME280;18457;52.432;16.914;2023-04-01T09:11:34;98804.40;;;10.97;100.00
31911;BME280;18457;52.432;16.914;2023-04-01T09:14:34;98807.69;;;11.18;100.00
31911;BME280;18457;52.432;16.914;2023-04-01T09:17:36;98814.77;;;11.30;100.00
31911;BME280;18457;52.432;16.914;2023-04-01T09:20:35;98816.77;;;11.34;100.00
31911;BME280;18457;52.432;16.914;2023-04-01T09:23:24;98820.75;;;11.23;100.00
31911;BME280;18457;52.432;16.914;2023-04-01T09:26:15;98821.80;;;11.24;100.00
31911;BME280;18457;52.432;16.914;2023-04-01T09:28:56;98830.20;;;11.16;100.00
31911;BME280;18457;52.432;16.914;2023-04-01T09:31:56;98829.30;;;11.12;100.00
31911;BME280;18457;52.432;16.914;2023-04-01T09:34:58;98836.98;;;11.10;100.00
31911;BME280;18457;52.432;16.914;2023-04-01T09:37:52;98843.41;;;11.01;100.00
31911;BME280;18457;52.432;16.914;2023-04-01T09:40:34;98846.98;;;10.95;100.00
31911;BME280;18457;52.432;16.914;2023-04-01T09:43:25;98850.46;;;10.94;100.00
31911;BME280;18457;52.432;16.914;2023-04-01T09:46:14;98857.36;;;10.93;100.00
31911;BME280;18457;52.432;16.914;2023-04-01T09:52:09;98862.84;;;10.82;100.00
31911;BME280;18457;52.432;16.914;2023-04-01T09:54:57;98863.13;;;10.72;100.00
31911;BME280;18457;52.432;16.914;2023-04-01T10:01:30;98877.45;;;10.60;100.00
31911;BME280;18457;52.432;16.914;2023-04-01T10:11:04;98878.34;;;10.64;100.00
31911;BME280;18457;52.432;16.914;2023-04-01T10:14:15;98886.66;;;10.79;100.00
31911;BME280;18457;52.432;16.914;2023-04-01T10:17:10;98893.27;;;10.73;100.00
31911;BME280;18457;52.432;16.914;2023-04-01T10:20:12;98898.19;;;10.61;100.00
31911;BME280;18457;52.432;16.914;2023-04-01T10:23:22;98899.42;;;10.58;100.00
31911;BME280;18457;52.432;16.914;2023-04-01T10:26:35;98902.74;;;10.64;100.00
31911;BME280;18457;52.432;16.914;2023-04-01T10:36:30;98909.66;;;10.59;100.00
31911;BME280;18457;52.432;16.914;2023-04-01T10:39:29;98910.76;;;10.58;100.00
31911;BME280;18457;52.432;16.914;2023-04-01T10:43:01;98909.16;;;10.65;100.00
31911;BME280;18457;52.432;16.914;2023-04-01T10:49:16;98918.52;;;10.55;100.00
31911;BME280;18457;52.432;16.914;2023-04-01T10:55:41;98923.71;;;10.52;100.00
31911;BME280;18457;52.432;16.914;2023-04-01T11:09:07;98935.09;;;10.52;100.00
31911;BME280;18457;52.432;16.914;2023-04-01T11:12:16;98939.39;;;10.52;100.00
31911;BME280;18457;52.432;16.914;2023-04-01T11:25:06;98942.35;;;10.77;100.00
31911;BME280;18457;52.432;16.914;2023-04-01T11:28:21;98944.17;;;10.81;100.00
31911;BME280;18457;52.432;16.914;2023-04-01T11:31:10;98949.05;;;10.95;100.00
31911;BME280;18457;52.432;16.914;2023-04-01T11:33:46;98951.64;;;10.91;100.00
31911;BME280;18457;52.432;16.914;2023-04-01T11:36:28;98957.12;;;10.86;100.00
31911;BME280;18457;52.432;16.914;2023-04-01T11:39:15;98960.67;;;10.76;100.00
31911;BME280;18457;52.432;16.914;2023-04-01T11:42:14;98960.66;;;10.72;100.00
31911;BME280;18457;52.432;16.914;2023-04-01T11:45:18;98962.73;;;10.74;100.00
31911;BME280;18457;52.432;16.914;2023-04-01T11:48:04;98967.41;;;10.67;100.00
31911;BME280;18457;52.432;16.914;2023-04-01T11:50:52;98970.98;;;10.64;100.00
31911;BME280;18457;52.432;16.914;2023-04-01T11:53:36;98980.71;;;10.61;100.00
31911;BME280;18457;52.432;16.914;2023-04-01T11:56:34;98976.00;;;10.57;100.00
31911;BME280;18457;52.432;16.914;2023-04-01T11:59:39;98985.20;;;10.65;100.00
31911;BME280;18457;52.432;16.914;2023-04-01T12:02:20;98993.89;;;10.49;100.00
31911;BME280;18457;52.432;16.914;2023-04-01T12:05:08;99002.59;;;10.45;100.00
31911;BME280;18457;52.432;16.914;2023-04-01T12:08:06;99006.94;;;10.44;100.00
31911;BME280;18457;52.432;16.914;2023-04-01T12:10:48;99009.70;;;10.20;100.00
31911;BME280;18457;52.432;16.914;2023-04-01T12:13:37;99010.60;;;10.20;100.00
31911;BME280;18457;52.432;16.914;2023-04-01T12:16:21;99012.63;;;10.31;100.00
31911;BME280;18457;52.432;16.914;2023-04-01T12:19:01;99013.67;;;10.31;100.00
31911;BME280;18457;52.432;16.914;2023-04-01T12:21:38;99021.44;;;10.27;100.00
31911;BME280;18457;52.432;16.914;2023-04-01T12:27:31;99025.38;;;10.24;100.00
31911;BME280;18457;52.432;16.914;2023-04-01T12:30:28;99028.76;;;10.17;100.00
31911;BME280;18457;52.432;16.914;2023-04-01T12:33:18;99034.46;;;10.15;100.00
31911;BME280;18457;52.432;16.914;2023-04-01T12:36:04;99034.55;;;10.24;100.00
31911;BME280;18457;52.432;16.914;2023-04-01T12:38:47;99034.95;;;10.28;100.00
31911;BME280;18457;52.432;16.914;2023-04-01T12:41:32;99037.23;;;10.17;100.00
31911;BME280;18457;52.432;16.914;2023-04-01T12:44:28;99038.03;;;10.07;100.00
31911;BME280;18457;52.432;16.914;2023-04-01T12:47:43;99040.64;;;10.05;100.00
31911;BME280;18457;52.432;16.914;2023-04-01T12:50:27;99050.45;;;10.03;100.00
31911;BME280;18457;52.432;16.914;2023-04-01T12:53:17;99051.21;;;10.11;100.00
31911;BME280;18457;52.432;16.914;2023-04-01T12:55:55;99054.42;;;10.20;100.00
31911;BME280;18457;52.432;16.914;2023-04-01T12:58:59;99059.84;;;10.28;100.00
31911;BME280;18457;52.432;16.914;2023-04-01T13:01:52;99060.83;;;10.18;99.86
31911;BME280;18457;52.432;16.914;2023-04-01T13:04:58;99064.70;;;10.28;100.00
31911;BME280;18457;52.432;16.914;2023-04-01T13:07:51;99067.71;;;10.29;99.77
31911;BME280;18457;52.432;16.914;2023-04-01T13:10:37;99070.75;;;10.27;98.45
31911;BME280;18457;52.432;16.914;2023-04-01T13:13:31;99069.06;;;10.36;98.31
31911;BME280;18457;52.432;16.914;2023-04-01T13:16:10;99075.34;;;10.49;98.12
31911;BME280;18457;52.432;16.914;2023-04-01T13:18:55;99077.19;;;10.40;97.32
31911;BME280;18457;52.432;16.914;2023-04-01T13:21:38;99079.30;;;10.29;96.75
31911;BME280;18457;52.432;16.914;2023-04-01T13:24:27;99075.46;;;10.34;97.17
31911;BME280;18457;52.432;16.914;2023-04-01T13:27:07;99087.86;;;10.36;96.53
31911;BME280;18457;52.432;16.914;2023-04-01T13:29:43;99092.64;;;10.29;95.80
31911;BME280;18457;52.432;16.914;2023-04-01T13:32:27;99089.58;;;10.33;95.65
31911;BME280;18457;52.432;16.914;2023-04-01T13:35:28;99092.44;;;10.42;95.73
31911;BME280;18457;52.432;16.914;2023-04-01T13:38:29;99091.95;;;10.37;95.22
31911;BME280;18457;52.432;16.914;2023-04-01T13:41:09;99097.10;;;10.38;94.55
31911;BME280;18457;52.432;16.914;2023-04-01T13:43:49;99096.42;;;10.33;94.11
31911;BME280;18457;52.432;16.914;2023-04-01T13:46:41;99101.34;;;10.24;94.16
31911;BME280;18457;52.432;16.914;2023-04-01T13:49:54;99103.66;;;10.29;94.66
31911;BME280;18457;52.432;16.914;2023-04-01T13:56:11;99100.55;;;10.38;92.99
31911;BME280;18457;52.432;16.914;2023-04-01T14:01:50;99104.85;;;10.59;90.61
31911;BME280;18457;52.432;16.914;2023-04-01T14:04:52;99105.69;;;10.64;90.62
31911;BME280;18457;52.432;16.914;2023-04-01T14:07:50;99103.25;;;10.82;90.00
31911;BME280;18457;52.432;16.914;2023-04-01T14:10:36;99105.73;;;11.02;87.78
31911;BME280;18457;52.432;16.914;2023-04-01T14:13:15;99103.42;;;11.05;86.71
31911;BME280;18457;52.432;16.914;2023-04-01T14:16:02;99109.95;;;11.05;87.09
31911;BME280;18457;52.432;16.914;2023-04-01T14:18:50;99111.11;;;11.22;87.62
31911;BME280;18457;52.432;16.914;2023-04-01T14:21:36;99113.11;;;11.14;86.75
31911;BME280;18457;52.432;16.914;2023-04-01T14:24:31;99118.08;;;11.08;86.26
31911;BME280;18457;52.432;16.914;2023-04-01T14:30:24;99124.38;;;10.90;86.95
31911;BME280;18457;52.432;16.914;2023-04-01T14:33:10;99129.89;;;10.76;87.16
31911;BME280;18457;52.432;16.914;2023-04-01T14:35:53;99132.55;;;10.74;87.35
31911;BME280;18457;52.432;16.914;2023-04-01T14:38:40;99137.63;;;10.69;88.40
31911;BME280;18457;52.432;16.914;2023-04-01T14:41:23;99138.30;;;10.62;88.33
31911;BME280;18457;52.432;16.914;2023-04-01T14:44:17;99141.96;;;10.57;88.38
31911;BME280;18457;52.432;16.914;2023-04-01T14:47:08;99147.92;;;10.48;89.08
31911;BME280;18457;52.432;16.914;2023-04-01T14:49:44;99153.96;;;10.47;89.29
31911;BME280;18457;52.432;16.914;2023-04-01T14:52:24;99153.60;;;10.35;89.09
31911;BME280;18457;52.432;16.914;2023-04-01T14:55:01;99156.96;;;10.36;89.24
31911;BME280;18457;52.432;16.914;2023-04-01T14:57:34;99162.60;;;10.39;88.74
31911;BME280;18457;52.432;16.914;2023-04-01T15:00:15;99163.86;;;10.35;88.51
31911;BME280;18457;52.432;16.914;2023-04-01T15:02:54;99167.41;;;10.32;88.74
31911;BME280;18457;52.432;16.914;2023-04-01T15:05:36;99171.85;;;10.18;89.52
31911;BME280;18457;52.432;16.914;2023-04-01T15:08:19;99175.48;;;10.17;90.19
31911;BME280;18457;52.432;16.914;2023-04-01T15:14:08;99177.75;;;10.19;89.84
31911;BME280;18457;52.432;16.914;2023-04-01T15:16:53;99184.56;;;10.24;89.94
31911;BME280;18457;52.432;16.914;2023-04-01T15:19:41;99188.36;;;10.11;90.07
31911;BME280;18457;52.432;16.914;2023-04-01T15:22:43;99189.24;;;9.98;90.14